Breckenridge, CO

11:49 PM MST on February 07, 2016 (GMT -0700)
Blue River | | Change Station
CLOSE
Current Station
Personal Weather Station
Location: Breckenridge, CO
Elevation: 10525 ft
Nearby Weather Stations

Elev 10525 ft 39.39 °N, 106.05 °W | Updated 5 minutes ago

Partly Cloudy
Partly Cloudy
15.8 °F
Feels Like 16 °F
N
0.0
Wind Variable Wind from ENE
Gusts 9.0 mph

Today
High -- | Low -- °F
--% Chance of Precip.
Yesterday
High -- | Low -- °F
Precip. -- in
Pressure 30.39 in
Visibility 10.0 miles
Clouds Clear
Windchill 16 °F
Dew Point 10 °F
Humidity 78%
Rainfall 0.00 in
Snow Depth Not available.
7:05 AM 5:31 PM
Waning Crescent, 0% visible
METAR KLXV 080553Z AUTO 01011KT 10SM CLR M08/M14 A3045 RMK AO2 SLP291 T10781144 11039 21083 58004
Pressure 30.39 in
Visibility 10.0 miles
Clouds Clear
Windchill 16 °F
Dew Point 10 °F
Humidity 78%
Rainfall 0.00 in
Snow Depth Not available.
7:05 AM 5:31 PM
Waning Crescent, 0% visible
METAR KLXV 080553Z AUTO 01011KT 10SM CLR M08/M14 A3045 RMK AO2 SLP291 T10781144 11039 21083 58004

10-Day Weather Forecast

Almanac

Astronomy

Feb. 07, 2016 Rise Set
Actual Time
Civil Twilight
Nautical Twilight
Astronomical Twilight
Moon
Length of Visible Light
Length of Day
Tomorrow will be .
, % of the Moon is Illuminated

Today's Extremes

State Highs State Lows

Community

WunderPhotos

Upload Photos

1,891,395 photos uploaded!

WunderBlog® & News

Nearby

Air Quality

  Air Quality AQ Index Pollutant
Not available.

Snow Depth

Station Depth Elevation

Earthquake Activity

City Distance Mag. Time & Date
Minimum magnitude displayed is 2.5.

Coastal Water Temperatures

Place Temperature

Stations

Nearby Weather Stations

Station Location Temp. Windchill Dew Point Humidity Wind Precip. Elev Updated Type
                   

Watches & Warnings

There are currently no watches in effect.